LiveATC.Net - Listen to live air traffic control over the Internet! Contact for advertising information

ICAO: KCCR  IATA: CCR   Airport: Buchanan Field Airport
City: Concord   State/Province: California
Country: United States   Continent: North America
KCCR METAR Weather: KCCR 300753Z 22004KT 9SM CLR 02/M03 A3022 RMK AO2 SLP219 T00171033 401441017
KCCR Flight Activity (FlightAware)
KCCR Airport Info   (AirNav) (iFlightPlanner)
KCCR VFR Sectional Chart   (iFlightPlanner) 
KCCR IFR Low Chart   (iFlightPlanner) 
KCCR Tower
Feed Status: UP   Listeners: 2
Listen right in your browser - requires Flash (in browser, requires Flash)
Click here to listen with your own player (launches your MP3 player)
KCCR Tower Audio Archives
Concord Tower119.700


Unauthorized use prohibited. See Terms of Service

Find LiveATC Audio Streams

Airport/ARTCC Code

(e.g., 124.400, 128.75)
Site-wide search

Browse LiveATC Feeds
LiveATC Coverage Map
Top 50 LiveATC Feeds
Bad Weather Areas

Offer a LiveATC Feed
Press Inquiries

LiveATC on iPhone
LiveATC on Android

Windows Phone
Windows 8/10

LiveATC Mobile
(Mobile browser)

ATC Audio Archives
Interesting Recordings

LiveATC Forums

Home Page
Make a Donation
LiveATC Bookstore

Terms of Use
Privacy Policy

ATC/Radar Sites
U.S. ARTCC Freqs
Canadian Air Freqs


FAA Airport Status
Nat'l Airspace Status
Arrival Demand Charts

Server Software By:

Please make a donation to help us keep growing!